createdAt,value
2022-12-31T00:00:50.518Z,50.20
2022-12-31T00:01:51.904Z,49.42
2022-12-31T00:02:52.881Z,56.42
2022-12-31T00:03:54.561Z,56.83
2022-12-31T00:04:55.433Z,51.90
2022-12-31T00:05:56.745Z,55.27
2022-12-31T00:06:57.630Z,59.63
2022-12-31T00:07:59.111Z,53.43
2022-12-31T00:09:00.877Z,52.95
2022-12-31T00:10:02.139Z,51.53
2022-12-31T00:11:04.010Z,52.28
2022-12-31T00:12:05.376Z,55.85
2022-12-31T00:13:06.455Z,54.03
2022-12-31T00:14:07.605Z,54.38
2022-12-31T00:15:08.822Z,50.17
2022-12-31T00:16:12.373Z,52.17
2022-12-31T00:17:13.531Z,51.85
2022-12-31T00:18:14.684Z,53.70
2022-12-31T00:19:15.560Z,52.83
2022-12-31T00:20:17.165Z,58.83
2022-12-31T00:21:18.517Z,46.05
2022-12-31T00:22:19.633Z,59.40
2022-12-31T00:23:20.456Z,50.45
2022-12-31T00:24:21.614Z,54.72
2022-12-31T00:25:22.542Z,46.88
2022-12-31T00:26:25.365Z,47.83
2022-12-31T00:27:26.212Z,49.60
2022-12-31T00:28:27.335Z,48.70
2022-12-31T00:29:28.199Z,53.35
2022-12-31T00:30:29.426Z,54.50
2022-12-31T00:31:31.047Z,53.67
2022-12-31T00:32:32.194Z,58.10
2022-12-31T00:33:33.185Z,53.67
2022-12-31T00:34:34.331Z,55.05
2022-12-31T00:35:35.767Z,57.13
2022-12-31T00:36:37.446Z,56.88
2022-12-31T00:37:38.315Z,48.58
2022-12-31T00:38:41.435Z,55.72
2022-12-31T00:39:42.263Z,52.53
2022-12-31T00:40:43.419Z,56.70
2022-12-31T00:41:44.954Z,58.85
2022-12-31T00:42:46.142Z,55.03
2022-12-31T00:43:47.368Z,51.17
2022-12-31T00:44:48.517Z,55.10
2022-12-31T00:45:49.391Z,53.25
2022-12-31T00:46:50.540Z,47.58
2022-12-31T00:47:51.392Z,47.72
2022-12-31T00:48:52.887Z,51.03
2022-12-31T00:49:53.767Z,48.53
2022-12-31T00:50:55.459Z,48.13
2022-12-31T00:51:56.325Z,47.67
2022-12-31T00:52:57.455Z,50.60
2022-12-31T00:53:58.428Z,57.95
2022-12-31T00:54:59.572Z,74.68
2022-12-31T00:56:00.750Z,138.00
2022-12-31T00:57:02.562Z,236.65
2022-12-31T00:58:03.421Z,342.05
2022-12-31T00:59:04.663Z,370.13
2022-12-31T01:00:06.927Z,287.75
2022-12-31T01:01:08.863Z,266.38
2022-12-31T01:03:10.959Z,153.32
2022-12-31T01:04:13.228Z,122.90
2022-12-31T01:05:14.127Z,102.57
2022-12-31T01:06:15.893Z,92.23
2022-12-31T01:07:16.752Z,103.60
2022-12-31T01:08:17.952Z,120.57
2022-12-31T01:09:18.813Z,92.78
2022-12-31T01:10:39.939Z,95.20
2022-12-31T01:11:40.966Z,318.60
2022-12-31T01:12:42.768Z,420.13
2022-12-31T01:13:43.648Z,298.42
2022-12-31T01:14:44.776Z,299.33
2022-12-31T01:15:45.628Z,308.80
2022-12-31T01:16:47.468Z,357.50
2022-12-31T01:17:48.314Z,336.27
2022-12-31T01:18:49.865Z,274.23
2022-12-31T01:19:51.115Z,261.17
2022-12-31T01:20:51.979Z,141.60
2022-12-31T01:21:53.764Z,106.07
2022-12-31T01:22:54.610Z,99.43
2022-12-31T01:23:57.183Z,98.57
2022-12-31T01:24:58.310Z,84.75
2022-12-31T01:25:59.682Z,72.15
2022-12-31T01:27:00.857Z,93.45
2022-12-31T01:28:02.455Z,69.60
2022-12-31T01:29:04.123Z,69.10
2022-12-31T01:30:05.475Z,66.57
2022-12-31T01:31:07.418Z,72.38
2022-12-31T01:33:09.348Z,64.55
2022-12-31T01:34:10.488Z,63.00
2022-12-31T01:35:11.315Z,55.75
2022-12-31T01:36:14.013Z,49.30
2022-12-31T01:37:14.905Z,61.60
2022-12-31T01:38:16.045Z,71.77
2022-12-31T01:39:17.190Z,70.43
2022-12-31T01:40:18.027Z,65.35
2022-12-31T01:41:20.047Z,71.75
2022-12-31T01:43:22.613Z,48.70
2022-12-31T01:44:42.308Z,58.65
2022-12-31T01:45:43.686Z,52.88
2022-12-31T01:46:47.155Z,64.55
2022-12-31T01:47:50.643Z,63.13
2022-12-31T01:48:53.165Z,66.93
2022-12-31T01:49:57.468Z,62.05
2022-12-31T01:50:59.168Z,70.57
2022-12-31T01:52:02.326Z,66.95
2022-12-31T01:53:04.258Z,74.32
2022-12-31T01:55:08.748Z,63.30
2022-12-31T01:56:09.942Z,67.88
2022-12-31T01:57:11.619Z,78.60
2022-12-31T01:58:17.107Z,75.30
2022-12-31T01:59:20.173Z,64.35
2022-12-31T02:00:21.059Z,64.35
2022-12-31T02:01:24.966Z,67.43
2022-12-31T02:02:26.202Z,69.07
2022-12-31T02:03:28.409Z,62.35
2022-12-31T02:04:29.471Z,63.10
2022-12-31T02:05:33.569Z,63.17
2022-12-31T02:06:37.454Z,60.55
2022-12-31T02:07:38.824Z,66.93
2022-12-31T02:08:42.208Z,65.65
2022-12-31T02:09:44.038Z,55.15
2022-12-31T02:10:44.880Z,62.83
2022-12-31T02:11:46.056Z,62.75
2022-12-31T02:12:47.274Z,64.25
2022-12-31T02:13:51.536Z,62.13
2022-12-31T02:14:56.915Z,67.38
2022-12-31T02:16:00.777Z,64.63
2022-12-31T02:17:05.334Z,61.40
2022-12-31T02:18:09.696Z,63.00
2022-12-31T02:19:29.187Z,65.63
2022-12-31T02:20:41.009Z,52.90
2022-12-31T02:21:51.438Z,64.20
2022-12-31T02:23:11.051Z,61.53
2022-12-31T02:24:26.305Z,62.10
2022-12-31T02:25:36.277Z,58.85
2022-12-31T02:26:44.958Z,65.07
2022-12-31T02:27:51.553Z,62.75
2022-12-31T02:29:10.267Z,62.10
2022-12-31T02:30:14.367Z,55.55
2022-12-31T02:31:17.124Z,63.30
2022-12-31T02:32:21.070Z,60.83
2022-12-31T02:33:26.223Z,58.78
2022-12-31T02:34:27.567Z,55.70
2022-12-31T02:35:29.755Z,63.55
2022-12-31T02:36:33.377Z,58.00
2022-12-31T02:37:35.475Z,55.33
2022-12-31T02:38:38.275Z,57.47
2022-12-31T02:39:39.985Z,60.45
2022-12-31T02:40:40.870Z,60.75
2022-12-31T02:41:51.173Z,69.75
2022-12-31T02:42:55.627Z,61.25
2022-12-31T02:43:57.050Z,60.15
2022-12-31T02:44:57.914Z,71.25
2022-12-31T02:46:06.442Z,68.15
2022-12-31T02:47:13.127Z,65.50
2022-12-31T02:48:22.469Z,63.85
2022-12-31T02:49:28.797Z,64.50
2022-12-31T02:50:35.379Z,61.10
2022-12-31T02:51:37.715Z,60.03
2022-12-31T02:52:44.233Z,68.15
2022-12-31T02:53:53.876Z,63.33
2022-12-31T02:54:58.527Z,62.88
2022-12-31T02:56:03.163Z,58.17
2022-12-31T02:57:06.031Z,70.25
2022-12-31T02:58:12.822Z,64.70
2022-12-31T02:59:36.765Z,74.55
2022-12-31T03:00:59.059Z,54.35
2022-12-31T03:02:14.599Z,64.75
2022-12-31T03:03:16.187Z,65.13
2022-12-31T03:04:32.869Z,68.53
2022-12-31T03:05:36.740Z,60.78
2022-12-31T03:06:37.755Z,64.38
2022-12-31T03:07:39.701Z,72.23
2022-12-31T03:08:56.333Z,71.75
2022-12-31T03:09:57.699Z,52.22
2022-12-31T03:10:58.543Z,58.60
2022-12-31T03:12:18.300Z,55.20
2022-12-31T03:13:19.463Z,71.53
2022-12-31T03:14:20.377Z,66.32
2022-12-31T03:15:22.606Z,65.23
2022-12-31T03:16:23.489Z,65.35
2022-12-31T03:17:25.956Z,59.97
2022-12-31T03:18:55.520Z,67.03
2022-12-31T03:20:14.938Z,50.83
2022-12-31T03:21:34.324Z,52.67
2022-12-31T03:22:37.844Z,101.93
2022-12-31T03:23:40.478Z,276.95
2022-12-31T03:24:59.626Z,87.95
2022-12-31T03:26:01.047Z,208.57
2022-12-31T03:27:01.884Z,243.68
2022-12-31T03:28:04.127Z,148.30
2022-12-31T03:29:04.970Z,246.90
2022-12-31T03:30:06.844Z,226.30
2022-12-31T03:31:08.259Z,173.35
2022-12-31T03:32:09.156Z,125.03
2022-12-31T03:33:11.242Z,109.23
2022-12-31T03:34:12.106Z,90.57
2022-12-31T03:35:14.119Z,107.97
2022-12-31T03:37:15.951Z,81.90
2022-12-31T03:38:17.488Z,109.03
2022-12-31T03:39:18.355Z,105.57
2022-12-31T03:40:20.452Z,104.03
2022-12-31T03:41:21.368Z,113.05
2022-12-31T03:42:22.551Z,120.27
2022-12-31T03:43:23.720Z,112.15
2022-12-31T03:44:24.589Z,121.72
2022-12-31T03:45:25.744Z,108.38
2022-12-31T03:46:26.626Z,147.32
2022-12-31T03:47:28.079Z,106.00
2022-12-31T03:48:29.900Z,174.80
2022-12-31T03:49:30.728Z,242.35
2022-12-31T03:50:32.223Z,272.80
2022-12-31T03:51:33.083Z,344.52
2022-12-31T03:52:34.514Z,307.10
2022-12-31T03:53:35.649Z,370.15
2022-12-31T03:54:36.507Z,232.52
2022-12-31T03:55:37.676Z,191.90
2022-12-31T03:56:38.559Z,355.98
2022-12-31T03:57:39.761Z,210.93
2022-12-31T03:58:40.876Z,219.98
2022-12-31T03:59:41.720Z,253.45
2022-12-31T04:00:42.913Z,148.95
2022-12-31T04:01:43.938Z,157.57
2022-12-31T04:02:45.280Z,218.63
2022-12-31T04:03:46.814Z,138.90
2022-12-31T04:04:47.940Z,222.25
2022-12-31T04:05:51.783Z,100.95
2022-12-31T04:06:53.027Z,81.20
2022-12-31T04:07:55.036Z,97.97
2022-12-31T04:09:56.850Z,109.10
2022-12-31T04:10:58.036Z,152.25
2022-12-31T04:11:58.937Z,106.85
2022-12-31T04:13:01.697Z,116.63
2022-12-31T04:14:02.546Z,99.97
2022-12-31T04:15:04.615Z,77.40
2022-12-31T04:16:05.520Z,106.55
2022-12-31T04:17:06.731Z,100.97
2022-12-31T04:18:07.873Z,90.60
2022-12-31T04:19:09.529Z,113.93
2022-12-31T04:20:10.849Z,89.50
2022-12-31T04:21:11.796Z,98.53
2022-12-31T04:22:13.043Z,81.47
2022-12-31T04:23:13.883Z,108.05
2022-12-31T04:24:15.057Z,86.10
2022-12-31T04:25:16.197Z,133.88
2022-12-31T04:26:17.055Z,95.28
2022-12-31T04:27:18.248Z,128.25
2022-12-31T04:28:19.128Z,112.07
2022-12-31T04:29:20.317Z,148.85
2022-12-31T04:30:21.449Z,87.80
2022-12-31T04:31:22.444Z,105.13
2022-12-31T04:32:23.674Z,97.30
2022-12-31T04:33:24.526Z,118.10
2022-12-31T04:34:26.400Z,77.15
2022-12-31T04:35:27.296Z,98.38
2022-12-31T04:36:28.443Z,93.57
2022-12-31T04:37:29.356Z,109.05
2022-12-31T04:38:30.692Z,81.20
2022-12-31T04:39:31.572Z,112.80
2022-12-31T04:40:32.683Z,74.40
2022-12-31T04:41:33.631Z,77.60
2022-12-31T04:42:34.855Z,56.08
2022-12-31T04:43:35.704Z,89.18
2022-12-31T04:44:36.840Z,56.37
2022-12-31T04:45:37.720Z,70.22
2022-12-31T04:46:38.875Z,89.07
2022-12-31T04:47:39.762Z,62.63
2022-12-31T04:48:40.917Z,48.07
2022-12-31T04:49:42.762Z,61.03
2022-12-31T04:50:45.380Z,69.18
2022-12-31T04:51:46.518Z,89.57
2022-12-31T04:52:47.408Z,101.43
2022-12-31T04:53:48.688Z,87.87
2022-12-31T04:54:49.768Z,105.30
2022-12-31T04:55:51.965Z,73.47
2022-12-31T04:56:52.844Z,70.18
2022-12-31T04:57:54.012Z,66.70
2022-12-31T04:58:54.895Z,91.57
2022-12-31T04:59:56.053Z,84.72
2022-12-31T05:00:56.999Z,89.28
2022-12-31T05:01:58.427Z,54.72
2022-12-31T05:02:59.555Z,79.75
2022-12-31T05:04:00.720Z,64.82
2022-12-31T05:05:02.304Z,91.63
2022-12-31T05:06:04.445Z,67.15
2022-12-31T05:07:05.617Z,94.18
2022-12-31T05:08:06.514Z,64.75
2022-12-31T05:09:07.643Z,120.37
2022-12-31T05:10:08.655Z,79.28
2022-12-31T05:11:09.858Z,74.13
2022-12-31T05:12:10.687Z,88.03
2022-12-31T05:13:12.237Z,76.63
2022-12-31T05:14:13.354Z,74.45
2022-12-31T05:15:14.305Z,76.57
2022-12-31T05:16:15.856Z,87.87
2022-12-31T05:17:16.729Z,89.95
2022-12-31T05:18:18.021Z,96.70
2022-12-31T05:19:19.804Z,62.38
2022-12-31T05:20:21.322Z,71.22
2022-12-31T05:21:22.444Z,72.43
2022-12-31T05:22:29.086Z,70.15
2022-12-31T05:23:30.314Z,87.60
2022-12-31T05:24:31.167Z,77.63
2022-12-31T05:25:32.292Z,99.13
2022-12-31T05:26:33.175Z,87.15
2022-12-31T05:27:34.400Z,83.80
2022-12-31T05:28:35.319Z,71.75
2022-12-31T05:29:36.472Z,73.13
2022-12-31T05:30:37.413Z,113.03
2022-12-31T05:31:38.610Z,102.65
2022-12-31T05:32:39.635Z,97.72
2022-12-31T05:33:40.810Z,113.93
2022-12-31T05:34:41.813Z,126.68
2022-12-31T05:35:43.718Z,111.30
2022-12-31T05:36:44.586Z,96.65
2022-12-31T05:37:45.752Z,97.97
2022-12-31T05:38:46.621Z,128.88
2022-12-31T05:39:47.828Z,88.22
2022-12-31T05:40:48.688Z,166.13
2022-12-31T05:41:49.814Z,138.90
2022-12-31T05:42:50.662Z,132.45
2022-12-31T05:43:51.836Z,88.68
2022-12-31T05:44:52.806Z,98.85
2022-12-31T05:45:53.991Z,108.72
2022-12-31T05:46:55.964Z,113.70
2022-12-31T05:48:57.781Z,81.97
2022-12-31T05:49:59.007Z,120.13
2022-12-31T05:51:00.495Z,107.43
2022-12-31T05:52:01.643Z,114.80
2022-12-31T05:53:02.538Z,101.22
2022-12-31T05:54:03.970Z,86.40
2022-12-31T05:55:05.396Z,91.13
2022-12-31T05:56:06.631Z,106.60
2022-12-31T05:57:07.510Z,189.45
2022-12-31T05:58:08.628Z,98.70
2022-12-31T05:59:09.505Z,157.90
2022-12-31T06:00:11.375Z,103.70
2022-12-31T06:01:12.558Z,128.18
2022-12-31T06:02:13.738Z,135.93
2022-12-31T06:03:15.011Z,148.82
2022-12-31T06:04:16.031Z,161.93
2022-12-31T06:05:22.485Z,143.70
2022-12-31T06:06:27.317Z,112.93
2022-12-31T06:07:28.474Z,157.43
2022-12-31T06:08:29.591Z,94.25
2022-12-31T06:09:30.512Z,119.38
2022-12-31T06:10:31.639Z,97.20
2022-12-31T06:11:32.508Z,146.95
2022-12-31T06:12:33.639Z,100.93
2022-12-31T06:13:34.616Z,156.73
2022-12-31T06:14:37.621Z,165.80
2022-12-31T06:15:41.785Z,135.38
2022-12-31T06:16:43.095Z,171.88
2022-12-31T06:17:43.928Z,108.22
2022-12-31T06:18:46.648Z,166.48
2022-12-31T06:19:47.749Z,159.05
2022-12-31T06:20:48.877Z,131.43
2022-12-31T06:21:50.496Z,104.13
2022-12-31T06:22:51.639Z,134.38
2022-12-31T06:23:52.482Z,110.32
2022-12-31T06:24:53.871Z,112.63
2022-12-31T06:25:54.715Z,161.45
2022-12-31T06:26:55.827Z,161.38
2022-12-31T06:27:56.995Z,103.25
2022-12-31T06:28:57.872Z,160.75
2022-12-31T06:29:59.072Z,146.97
2022-12-31T06:31:00.362Z,107.53
2022-12-31T06:32:01.559Z,95.30
2022-12-31T06:33:02.422Z,108.38
2022-12-31T06:34:03.580Z,117.53
2022-12-31T06:35:05.141Z,91.13
2022-12-31T06:36:08.033Z,113.05
2022-12-31T06:37:09.556Z,98.63
2022-12-31T06:38:10.695Z,138.68
2022-12-31T06:39:11.540Z,102.05
2022-12-31T06:40:12.739Z,124.80
2022-12-31T06:41:15.446Z,98.07
2022-12-31T06:42:16.640Z,140.05
2022-12-31T06:43:17.607Z,121.32
2022-12-31T06:44:21.591Z,125.00
2022-12-31T06:45:22.497Z,100.40
2022-12-31T06:46:24.104Z,113.83
2022-12-31T06:47:25.343Z,102.22
2022-12-31T06:48:26.180Z,93.07
2022-12-31T06:49:27.531Z,137.88
2022-12-31T06:50:28.408Z,99.53
2022-12-31T06:51:29.693Z,120.47
2022-12-31T06:52:31.182Z,129.98
2022-12-31T06:53:32.323Z,126.93
2022-12-31T06:54:33.431Z,135.70
2022-12-31T06:55:34.935Z,119.65
2022-12-31T06:56:36.015Z,143.82
2022-12-31T06:57:37.443Z,136.05
2022-12-31T06:58:38.547Z,117.97
2022-12-31T06:59:40.075Z,121.18
2022-12-31T07:00:44.110Z,144.07
2022-12-31T07:01:49.336Z,116.43
2022-12-31T07:02:57.473Z,133.65
2022-12-31T07:04:02.942Z,130.60
2022-12-31T07:05:07.669Z,124.13
2022-12-31T07:06:09.579Z,130.95
2022-12-31T07:08:17.793Z,99.95
2022-12-31T07:09:24.726Z,150.23
2022-12-31T07:10:33.233Z,131.63
2022-12-31T07:11:38.492Z,158.30
2022-12-31T07:12:48.674Z,145.40
2022-12-31T07:13:56.479Z,146.40
2022-12-31T07:14:59.159Z,133.15
2022-12-31T07:16:06.456Z,136.15
2022-12-31T07:17:10.687Z,138.07
2022-12-31T07:18:17.266Z,142.68
2022-12-31T07:19:24.676Z,124.00
2022-12-31T07:20:25.786Z,140.52
2022-12-31T07:21:31.547Z,134.50
2022-12-31T07:22:33.085Z,137.77
2022-12-31T07:23:35.009Z,132.07
2022-12-31T07:24:36.478Z,144.20
2022-12-31T07:25:40.453Z,140.63
2022-12-31T07:26:56.212Z,124.43
2022-12-31T07:28:05.456Z,141.10
2022-12-31T07:29:08.680Z,144.32
2022-12-31T07:30:11.898Z,135.68
2022-12-31T07:31:17.076Z,150.63
2022-12-31T07:32:22.946Z,146.75
2022-12-31T07:33:35.720Z,147.43
2022-12-31T07:34:38.959Z,150.63
2022-12-31T07:35:43.109Z,140.82
2022-12-31T07:36:49.894Z,144.80
2022-12-31T07:37:55.296Z,141.80
2022-12-31T07:39:00.904Z,145.32
2022-12-31T07:40:08.361Z,132.15
2022-12-31T07:41:15.135Z,155.98
2022-12-31T07:42:18.274Z,163.15
2022-12-31T07:43:25.344Z,165.02
2022-12-31T07:44:32.056Z,173.07
2022-12-31T07:45:37.107Z,174.30
2022-12-31T07:46:42.652Z,169.57
2022-12-31T07:47:43.759Z,161.10
2022-12-31T07:48:45.238Z,176.38
2022-12-31T07:49:46.453Z,196.65
2022-12-31T07:50:47.847Z,186.93
2022-12-31T07:51:49.175Z,199.70
2022-12-31T07:52:50.580Z,182.38
2022-12-31T07:53:51.438Z,186.05
2022-12-31T07:54:53.281Z,185.67
2022-12-31T07:55:55.578Z,198.95
2022-12-31T07:56:57.289Z,185.70
2022-12-31T07:58:01.166Z,177.85
2022-12-31T07:59:05.650Z,165.60
2022-12-31T08:00:10.663Z,173.52
2022-12-31T08:01:12.643Z,160.02
2022-12-31T08:02:18.035Z,156.60
2022-12-31T08:03:27.310Z,143.10
2022-12-31T08:04:30.982Z,148.32
2022-12-31T08:05:34.461Z,138.75
2022-12-31T08:06:38.435Z,139.07
2022-12-31T08:07:42.903Z,135.40
2022-12-31T08:08:46.711Z,122.60
2022-12-31T08:09:51.869Z,132.13
2022-12-31T08:10:59.938Z,126.00
2022-12-31T08:12:01.805Z,131.73
2022-12-31T08:13:04.921Z,137.77
2022-12-31T08:14:08.332Z,127.25
2022-12-31T08:15:12.717Z,133.63
2022-12-31T08:16:14.074Z,116.30
2022-12-31T08:17:15.991Z,119.28
2022-12-31T08:18:17.343Z,108.47
2022-12-31T08:19:22.041Z,115.22
2022-12-31T08:20:23.237Z,106.75
2022-12-31T08:21:34.981Z,108.15
2022-12-31T08:22:45.759Z,96.65
2022-12-31T08:23:51.333Z,86.93
2022-12-31T08:24:58.221Z,83.80
2022-12-31T08:26:07.070Z,94.45
2022-12-31T08:27:12.036Z,88.85
2022-12-31T08:28:17.927Z,82.93
2022-12-31T08:29:25.059Z,88.50
2022-12-31T08:30:28.287Z,73.78
2022-12-31T08:31:35.563Z,71.00
2022-12-31T08:32:41.863Z,66.32
2022-12-31T08:33:47.952Z,65.55
2022-12-31T08:34:53.878Z,67.85
2022-12-31T08:36:01.991Z,63.25
2022-12-31T08:37:06.178Z,58.85
2022-12-31T08:38:22.268Z,63.08
2022-12-31T08:39:28.048Z,52.80
2022-12-31T08:40:33.043Z,54.20
2022-12-31T08:41:42.969Z,58.17
2022-12-31T08:42:49.779Z,59.80
2022-12-31T08:44:04.435Z,56.95
2022-12-31T08:45:11.768Z,56.20
2022-12-31T08:46:16.824Z,53.08
2022-12-31T08:47:25.947Z,54.13
2022-12-31T08:48:30.682Z,55.35
2022-12-31T08:49:32.832Z,48.28
2022-12-31T08:50:34.236Z,50.83
2022-12-31T08:51:35.638Z,46.25
2022-12-31T08:52:36.751Z,53.67
2022-12-31T08:53:38.231Z,49.55
2022-12-31T08:54:39.583Z,49.38
2022-12-31T08:55:41.781Z,52.20
2022-12-31T08:56:50.336Z,47.97
2022-12-31T08:57:58.398Z,47.03
2022-12-31T08:59:14.651Z,52.88
2022-12-31T09:00:16.698Z,48.97
2022-12-31T09:01:21.444Z,45.35
2022-12-31T09:02:32.277Z,44.55
2022-12-31T09:03:42.541Z,47.08
2022-12-31T09:04:51.187Z,42.47
2022-12-31T09:05:54.345Z,47.30
2022-12-31T09:06:58.101Z,47.42
2022-12-31T09:08:10.470Z,41.35
2022-12-31T09:09:13.732Z,41.60
2022-12-31T09:10:17.574Z,41.03
2022-12-31T09:11:23.498Z,43.50
2022-12-31T09:12:28.947Z,46.55
2022-12-31T09:13:37.481Z,40.83
2022-12-31T09:14:43.572Z,38.95
2022-12-31T09:15:48.390Z,44.00
2022-12-31T09:16:54.002Z,37.95
2022-12-31T09:17:55.541Z,39.70
2022-12-31T09:18:56.677Z,40.78
2022-12-31T09:19:57.862Z,34.88
2022-12-31T09:20:59.137Z,37.33
2022-12-31T09:22:00.565Z,41.53
2022-12-31T09:23:01.607Z,40.53
2022-12-31T09:24:09.014Z,37.40
2022-12-31T09:25:13.346Z,37.55
2022-12-31T09:26:20.173Z,41.03
2022-12-31T09:27:27.801Z,34.92
2022-12-31T09:28:36.175Z,37.58
2022-12-31T09:29:43.066Z,37.72
2022-12-31T09:30:49.379Z,34.85
2022-12-31T09:31:53.700Z,33.38
2022-12-31T09:33:01.348Z,36.33
2022-12-31T09:34:06.485Z,32.25
2022-12-31T09:35:11.895Z,38.15
2022-12-31T09:36:16.711Z,35.70
2022-12-31T09:37:20.599Z,35.25
2022-12-31T09:38:23.261Z,34.90
2022-12-31T09:39:28.128Z,32.33
2022-12-31T09:40:50.152Z,33.35
2022-12-31T09:42:02.642Z,30.70
2022-12-31T09:44:16.622Z,33.40
2022-12-31T09:45:35.411Z,31.55
2022-12-31T09:47:03.305Z,32.58
2022-12-31T09:48:19.315Z,33.42
2022-12-31T09:49:38.450Z,32.65
2022-12-31T09:50:48.702Z,30.42
2022-12-31T09:51:56.639Z,30.10
2022-12-31T09:53:11.736Z,33.28
2022-12-31T09:54:23.426Z,34.33
2022-12-31T09:55:30.844Z,29.95
2022-12-31T09:56:35.657Z,31.52
2022-12-31T09:57:39.152Z,30.55
2022-12-31T09:58:43.611Z,29.13
2022-12-31T09:59:48.123Z,32.72
2022-12-31T10:00:51.889Z,31.75
2022-12-31T10:01:55.361Z,32.35
2022-12-31T10:03:01.985Z,27.83
2022-12-31T10:04:23.336Z,34.22
2022-12-31T10:05:30.930Z,31.42
2022-12-31T10:06:35.471Z,27.77
2022-12-31T10:07:45.990Z,30.77
2022-12-31T10:09:01.503Z,29.25
2022-12-31T10:10:09.082Z,33.85
2022-12-31T10:11:14.051Z,29.42
2022-12-31T10:12:42.268Z,28.85
2022-12-31T10:13:48.342Z,30.65
2022-12-31T10:15:00.265Z,29.40
2022-12-31T10:16:05.628Z,28.95
2022-12-31T10:17:13.721Z,27.67
2022-12-31T10:18:23.023Z,29.60
2022-12-31T10:19:36.557Z,28.77
2022-12-31T10:20:46.846Z,31.45
2022-12-31T10:21:53.483Z,33.53
2022-12-31T10:23:13.106Z,34.45
2022-12-31T10:24:21.691Z,34.65
2022-12-31T10:25:39.840Z,34.40
2022-12-31T10:26:53.024Z,35.55
2022-12-31T10:27:59.560Z,28.75
2022-12-31T10:29:08.602Z,28.90
2022-12-31T10:30:13.498Z,27.25
2022-12-31T10:31:15.370Z,28.67
2022-12-31T10:33:25.189Z,31.08
2022-12-31T10:34:30.475Z,27.63
2022-12-31T10:35:36.280Z,29.90
2022-12-31T10:36:46.351Z,31.58
2022-12-31T10:37:52.774Z,24.25
2022-12-31T10:39:00.209Z,29.58
2022-12-31T10:40:10.994Z,29.88
2022-12-31T10:41:26.478Z,28.17
2022-12-31T10:42:51.386Z,25.35
2022-12-31T10:44:11.835Z,27.45
2022-12-31T10:45:33.933Z,27.08
2022-12-31T10:46:49.509Z,24.55
2022-12-31T10:48:10.151Z,23.75
2022-12-31T10:49:32.340Z,26.05
2022-12-31T10:50:48.602Z,25.48
2022-12-31T10:52:10.547Z,19.88
2022-12-31T10:53:29.643Z,23.52
2022-12-31T10:54:48.350Z,22.65
2022-12-31T10:55:56.092Z,22.13
2022-12-31T10:57:06.540Z,21.00
2022-12-31T10:58:22.560Z,23.58
2022-12-31T10:59:41.415Z,21.90
2022-12-31T11:00:45.706Z,20.42
2022-12-31T11:01:48.288Z,21.05
2022-12-31T11:03:06.760Z,22.50
2022-12-31T11:04:19.245Z,25.52
2022-12-31T11:06:39.023Z,21.42
2022-12-31T11:08:09.062Z,22.23
2022-12-31T11:09:27.477Z,20.95
2022-12-31T11:10:50.021Z,22.42
2022-12-31T11:11:56.452Z,22.17
2022-12-31T11:13:29.401Z,23.33
2022-12-31T11:14:45.781Z,25.85
2022-12-31T11:16:01.860Z,37.55
2022-12-31T11:17:11.262Z,26.67
2022-12-31T11:18:17.408Z,23.42
2022-12-31T11:19:20.913Z,22.23
2022-12-31T11:20:31.096Z,22.63
2022-12-31T11:21:41.841Z,22.10
2022-12-31T11:22:47.839Z,22.70
2022-12-31T11:23:54.998Z,20.05
2022-12-31T11:25:05.831Z,25.67
2022-12-31T11:26:12.384Z,23.30
2022-12-31T11:27:19.664Z,23.42
2022-12-31T11:28:25.704Z,22.58
2022-12-31T11:29:35.428Z,25.35
2022-12-31T11:30:41.460Z,25.38
2022-12-31T11:31:50.299Z,26.38
2022-12-31T11:33:00.559Z,21.13
2022-12-31T11:34:09.864Z,21.45
2022-12-31T11:35:28.735Z,21.83
2022-12-31T11:36:35.741Z,26.02
2022-12-31T11:37:41.647Z,23.05
2022-12-31T11:38:44.799Z,23.92
2022-12-31T11:39:49.089Z,25.65
2022-12-31T11:40:56.246Z,24.50
2022-12-31T11:41:59.816Z,24.13
2022-12-31T11:43:04.148Z,29.55
2022-12-31T11:44:15.699Z,25.13
2022-12-31T11:45:21.481Z,27.20
2022-12-31T11:46:43.357Z,33.13
2022-12-31T11:48:28.675Z,27.45
2022-12-31T11:49:30.213Z,27.73
2022-12-31T11:50:38.334Z,28.90
2022-12-31T11:51:50.690Z,30.13
2022-12-31T11:52:54.735Z,27.60
2022-12-31T11:54:20.222Z,28.23
2022-12-31T11:55:29.689Z,28.58
2022-12-31T11:56:32.412Z,26.95
2022-12-31T11:57:34.556Z,31.52
2022-12-31T11:58:35.708Z,32.30
2022-12-31T11:59:36.602Z,29.45
2022-12-31T12:00:38.476Z,28.47
2022-12-31T12:01:47.017Z,31.77
2022-12-31T12:02:49.557Z,32.13
2022-12-31T12:03:50.733Z,29.05
2022-12-31T12:04:52.237Z,27.35
2022-12-31T12:05:55.716Z,27.33
2022-12-31T12:06:57.095Z,30.50
2022-12-31T12:07:58.217Z,33.10
2022-12-31T12:09:01.485Z,29.23
2022-12-31T12:10:06.859Z,30.42
2022-12-31T12:11:13.667Z,29.20
2022-12-31T12:12:15.710Z,32.15
2022-12-31T12:13:21.363Z,30.83
2022-12-31T12:14:28.949Z,28.10
2022-12-31T12:15:31.920Z,29.13
2022-12-31T12:16:33.182Z,26.60
2022-12-31T12:17:34.689Z,31.48
2022-12-31T12:18:40.513Z,30.02
2022-12-31T12:19:42.368Z,32.78
2022-12-31T12:20:44.136Z,27.92
2022-12-31T12:21:46.617Z,28.13
2022-12-31T12:22:49.570Z,27.75
2022-12-31T12:23:55.010Z,33.70
2022-12-31T12:24:56.815Z,30.83
2022-12-31T12:25:58.002Z,29.30
2022-12-31T12:26:59.224Z,33.17
2022-12-31T12:28:10.394Z,30.38
2022-12-31T12:29:12.259Z,26.23
2022-12-31T12:30:18.711Z,28.17
2022-12-31T12:31:21.677Z,31.60
2022-12-31T12:32:24.445Z,31.35
2022-12-31T12:33:26.122Z,29.25
2022-12-31T12:34:27.970Z,29.13
2022-12-31T12:35:30.228Z,30.35
2022-12-31T12:36:31.402Z,29.60
2022-12-31T12:37:33.801Z,30.27
2022-12-31T12:38:35.187Z,29.88
2022-12-31T12:39:36.329Z,30.95
2022-12-31T12:40:37.990Z,32.08
2022-12-31T12:41:39.120Z,30.15
2022-12-31T12:42:45.596Z,29.13
2022-12-31T12:43:46.895Z,30.67
2022-12-31T12:44:47.729Z,36.45
2022-12-31T12:45:52.440Z,32.63
2022-12-31T12:46:54.040Z,38.00
2022-12-31T12:47:56.297Z,34.08
2022-12-31T12:48:57.698Z,35.40
2022-12-31T12:49:58.926Z,34.40
2022-12-31T12:51:00.619Z,31.15
2022-12-31T12:52:09.405Z,34.20
2022-12-31T12:53:25.427Z,32.55
2022-12-31T12:54:35.240Z,34.80
2022-12-31T12:55:40.584Z,33.97
2022-12-31T12:56:44.631Z,36.05
2022-12-31T12:57:48.612Z,38.83
2022-12-31T12:58:58.039Z,41.30
2022-12-31T13:00:03.662Z,41.05
2022-12-31T13:01:10.354Z,34.50
2022-12-31T13:02:22.599Z,35.38
2022-12-31T13:03:34.608Z,39.50
2022-12-31T13:04:45.034Z,37.50
2022-12-31T13:05:51.723Z,38.22
2022-12-31T13:06:58.678Z,38.30
2022-12-31T13:08:05.207Z,39.92
2022-12-31T13:09:17.236Z,39.10
2022-12-31T13:10:32.827Z,39.30
2022-12-31T13:11:40.085Z,37.85
2022-12-31T13:13:22.289Z,31.92
2022-12-31T13:14:13.963Z,36.22
2022-12-31T13:15:18.146Z,35.60
2022-12-31T13:16:22.277Z,41.78
2022-12-31T13:17:29.698Z,36.60
2022-12-31T13:18:38.691Z,42.28
2022-12-31T13:19:41.928Z,35.83
2022-12-31T13:20:45.651Z,35.92
2022-12-31T13:21:50.523Z,39.78
2022-12-31T13:22:55.406Z,36.45
2022-12-31T13:23:58.098Z,39.30
2022-12-31T13:25:00.429Z,39.45
2022-12-31T13:26:06.674Z,35.97
2022-12-31T13:27:11.414Z,45.97
2022-12-31T13:28:15.154Z,38.80
2022-12-31T13:29:18.150Z,40.05
2022-12-31T13:30:20.792Z,38.83
2022-12-31T13:31:24.320Z,45.70
2022-12-31T13:32:32.261Z,38.05
2022-12-31T13:33:36.104Z,40.95
2022-12-31T13:34:39.584Z,42.75
2022-12-31T13:35:43.147Z,35.17
2022-12-31T13:36:46.132Z,40.33
2022-12-31T13:37:48.139Z,43.10
2022-12-31T13:39:57.314Z,37.05
2022-12-31T13:41:00.872Z,41.08
2022-12-31T13:42:04.610Z,41.80
2022-12-31T13:43:07.576Z,39.90
2022-12-31T13:44:11.807Z,40.10
2022-12-31T13:45:15.977Z,36.40
2022-12-31T13:46:18.816Z,43.92
2022-12-31T13:47:21.491Z,40.70
2022-12-31T13:48:25.030Z,41.97
2022-12-31T13:49:30.704Z,34.45
2022-12-31T13:50:33.387Z,40.85
2022-12-31T13:51:39.797Z,45.22
2022-12-31T13:52:44.183Z,42.17
2022-12-31T13:53:48.778Z,44.03
2022-12-31T13:54:52.998Z,44.15
2022-12-31T13:55:57.232Z,39.13
2022-12-31T13:57:00.819Z,38.03
2022-12-31T13:58:05.395Z,42.10